Garden Spring, Nevada Weather observations

Data are for 10 minute period ending at time listed.
 Day   Time    Ave.   Ave.  Ave.  Vector   Max.   Stn.    Total    Solar   Ave.  
  of    of     Air    Rel.  Wind   Wind    Wind   Baro.  Precip.   Rad.    Soil  
Year   Day     Temp.  Hum.  Speed  Dir.    Gust   Pres.                    Temp. 
2026   (PST)    F      %     mph   deg.    mph     mb.     in.     W/m2     F    
--------------------------------------------------------------------------------- 
 125    0:00   50.6    44    4.1   205      8.4   847.5    0.00       0    66.6  
 125    0:10   50.3    44    2.3   199      5.8   847.4    0.00       0    66.4  
 125    0:20   49.4    46    2.6   225      4.6   847.3    0.00       0    66.2  
 125    0:30   49.0    46    1.9   213      5.3   847.3    0.00       0    66.0  
 125    0:40   48.5    47    1.9   285      2.9   847.2    0.00       0    65.8  
 125    0:50   47.6    48    2.1   326      4.4   847.2    0.00       0    65.6  
 125    1:00   46.5    50    3.5   298      5.8   847.1    0.00       0    65.4  
 125    1:10   45.4    52    4.2   264      5.7   847.0    0.00       0    65.3  
 125    1:20   44.2    54    3.7   268      4.7   847.0    0.00       0    65.1  
 125    1:30   43.3    56    3.9   260      5.0   847.0    0.00       0    64.9  
 125    1:40   43.2    56    2.8   246      4.4   846.9    0.00       0    64.7  
 125    1:50   43.6    55    2.1   257      3.5   846.9    0.00       0    64.6  
 125    2:00   42.8    57    3.9   261      4.9   846.9    0.00       0    64.5  
 125    2:10   42.8    56    3.0   312      4.3   846.9    0.00       0    64.3  
 125    2:20   43.1    56    3.5   295      4.9   846.9    0.00       0    64.2  
 125    2:30   42.2    58    4.2   263      5.8   846.9    0.00       0    64.1  
 125    2:40   41.5    59    3.9   266      5.4   846.9    0.00       0    63.9  
 125    2:50   42.1    58    3.4   274      4.8   846.9    0.00       0    63.8  
 125    3:00   41.7    59    3.2   274      4.7   846.9    0.00       0    63.6  
 125    3:10   41.6    60    3.4   261      4.6   846.9    0.00       0    63.5  
 125    3:20   40.7    61    3.6   261      4.4   847.0    0.00       0    63.3  
 125    3:30   41.0    61    3.3   262      4.1   847.0    0.00       0    63.2  
 125    3:40   41.0    61    4.0   288      4.8   847.0    0.00       0    63.0  
 125    3:50   40.6    62    4.3   261      5.7   846.9    0.00       0    62.9  
 125    4:00   40.8    62    4.3   272      6.2   846.8    0.00       0    62.8  
 125    4:10   40.6    62    3.9   272      4.9   846.8    0.00       0    62.7  
 125    4:20   40.6    64    4.4   277      5.2   846.8    0.00       0    62.5  
 125    4:30   41.3    62    3.4   293      4.9   846.9    0.00       1    62.4  
 125    4:40   40.0    66    3.9   261      5.6   847.0    0.00       4    62.3  
 125    4:50   40.7    64    4.1   269      5.7   847.1    0.00       9    62.1  
 125    5:00   40.9    64    4.1   266      6.0   847.1    0.00      23    62.0  
 125    5:10   42.1    62    4.2   265      6.0   847.2    0.00      45    62.0  
 125    5:20   44.3    58    2.9   266      4.7   847.2    0.00      78    62.2  
 125    5:30   46.8    54    2.3   284      3.4   847.2    0.00     115    62.6  
 125    5:40   49.2    49    1.6   276      4.1   847.3    0.00     149    62.9  
 125    5:50   51.7    45    1.5    48      4.2   847.3    0.00     182    63.0  
 125    6:00   52.9    43    2.8    71      5.1   847.4    0.00     217    63.1  
 125    6:10   52.7    44    4.0   108      7.4   847.4    0.00     251    63.0  
 125    6:20   53.2    44    5.4   150     10.6   847.5    0.00     287    62.9  
 125    6:30   53.2    45    5.9   159     11.2   847.5    0.00     323    62.8  
 125    6:40   53.6    45    6.3   174     12.2   847.5    0.00     359    62.5  
 125    6:50   53.8    44    7.3   176     14.2   847.5    0.00     397    62.1  
 125    7:00   54.6    43    7.5   171     13.5   847.4    0.00     433    61.9  
 125    7:10   54.9    42    7.8   174     16.2   847.5    0.00     470    61.8  
 125    7:20   55.1    41    8.3   172     13.9   847.6    0.00     506    61.7  
 125    7:30   55.1    41    8.7   182     14.4   847.6    0.00     541    61.5  
 125    7:40   55.9    40    7.9   165     14.5   847.6    0.00     577    61.6  
 125    7:50   55.8    40    8.7   178     14.3   847.6    0.00     620    61.5  
 125    8:00   57.1    38    8.3   160     15.4   847.6    0.00     685    61.6  
 125    8:10   57.6    38    7.3   161     15.1   847.7    0.00     753    61.7  
 125    8:20   58.1    37    7.9   171     14.4   847.7    0.00     816    61.9  
 125    8:30   57.9    37    9.4   164     17.7   847.7    0.00     757    61.9  
 125    8:40   57.7    36    7.5   158     15.7   847.7    0.00     816    61.7  
 125    8:50   58.7    35    8.1   149     14.4   847.7    0.00     848    61.9  
 125    9:00   58.1    35    5.7   184     12.2   847.8    0.00     708    62.0  
 125    9:10   58.8    33    5.4   172     14.4   847.9    0.00     985    62.1  
 125    9:20   59.2    34    5.2   159     13.8   847.9    0.00     716    62.4  
 125    9:30   59.9    33    7.2   143     13.9   847.9    0.00    1013    62.6  
 125    9:40   59.9    33    7.7   133     14.8   847.9    0.00    1026    62.9  
 125    9:50   59.3    32    6.0   180     11.3   847.9    0.00     644    63.0  
 125   10:00   59.9    31    6.9   140     12.8   847.8    0.00    1082    63.0  
 125   10:10   60.7    30    5.9   154     14.2   847.7    0.00    1071    63.4  
 125   10:20   60.6    29    7.1   148     12.7   847.8    0.00    1106    63.8  
 125   10:30   61.8    27    5.3   135     14.7   847.7    0.00    1116    64.1  
 125   10:40   62.3    26    7.5   161     14.9   847.7    0.00    1144    64.4  
 125   10:50   62.2    26    5.9   165     12.2   847.8    0.00    1166    64.7  
 125   11:00   62.5    26    6.4   177     17.2   847.8    0.00    1151    64.9  
 125   11:10   62.5    26    5.4   122     10.9   847.8    0.00    1170    65.1  
 125   11:20   63.1    25    7.5   184     17.0   847.7    0.00    1095    65.4  
 125   11:30   62.5    25    6.1   178     13.2   847.7    0.00    1220    65.6  
 125   11:40   63.6    24    5.6   134      9.6   847.6    0.00    1248    66.1  
 125   11:50   63.7    24    3.9   160      9.8   847.5    0.00     846    66.5  
 125   12:00   61.1    26    5.6   149     13.0   847.4    0.00     729    66.7  
 125   12:10   63.5    24    7.0   165     17.0   847.3    0.00    1127    67.1  
 125   12:20   63.8    23    5.3   164     13.7   847.2    0.00    1144    67.9  
 125   12:30   63.0    23    8.7   160     14.8   847.1    0.00     882    68.2  
 125   12:40   63.3    22    6.3   127     12.8   847.1    0.00     999    68.6  
 125   12:50   64.2    22    7.5   189     14.2   847.1    0.00    1128    69.3  
 125   13:00   64.5    22    4.2   224     11.1   847.1    0.00    1173    70.0  
 125   13:10   65.4    21    5.8   136     13.0   847.1    0.00     888    70.6  
 125   13:20   65.2    21    7.1   155     12.8   847.1    0.00     898    71.0  
 125   13:30   64.0    22    5.9   205     10.8   847.0    0.00     310    71.2  
 125   13:40   62.4    23    4.2   222      9.9   846.9    0.00     709    71.1  
 125   13:50   65.5    21    5.2   189     12.2   846.8    0.00    1041    71.8  
 125   14:00   66.1    21    6.4   169     10.7   846.7    0.00     941    72.7  
 125   14:10   65.0    22    6.1   165     11.4   846.6    0.00     601    72.9  
 125   14:20   63.4    23    6.5   137     11.2   846.5    0.00     611    72.7  
 125   14:30   65.2    22    5.9   184     14.1   846.4    0.00     915    73.3  
 125   14:40   65.2    22    4.8   141      9.9   846.3    0.00     745    73.8  
 125   14:50   63.9    23    7.6   175     12.8   846.2    0.00     626    73.8  
 125   15:00   65.6    22    5.6   166     10.6   846.1    0.00     784    74.1  
 125   15:10   65.4    22    6.1   158     13.7   846.0    0.00     449    74.5  
 125   15:20   64.3    22    3.5   169      9.4   845.9    0.00     544    74.2  
 125   15:30   66.4    20    5.1   241     11.7   845.8    0.00     626    74.7  
 125   15:40   66.2    21    7.9   203     13.8   845.8    0.00     637    75.0  
 125   15:50   65.7    21    6.3   232     13.7   845.8    0.00     606    75.2  
 125   16:00   65.9    21    5.4   214     12.2   845.8    0.00     538    75.2  
 125   16:10   65.4    21    3.8   192      7.3   845.8    0.00     498    75.3  
 125   16:20   65.4    20    6.5   201     14.0   845.8    0.00     438    75.3  
 125   16:30   64.5    21    7.4   223     15.1   845.9    0.00     347    75.2  
 125   16:40   64.9    20    5.4   240     11.9   846.0    0.00     371    75.1  
 125   16:50   64.9    20    5.7   234     11.3   846.0    0.00     332    75.1  
 125   17:00   64.7    20    6.6   222     13.9   846.0    0.00     296    75.1  
 125   17:10   64.2    20    4.8   224     11.5   846.0    0.00     251    75.0  
 125   17:20   63.8    20    5.9   222     11.9   846.1    0.00     226    74.9  
 125   17:30   63.6    20    5.8   217     10.7   846.1    0.00     202    74.8  
 125   17:40   63.0    20    6.2   231     11.2   846.1    0.00     167    74.8  
 125   17:50   62.3    20    6.2   234     12.4   846.2    0.00     112    74.6  
 125   18:00   61.1    21    6.8   235     11.7   846.3    0.00      49    74.4  
 125   18:10   60.3    22    6.2   229     12.2   846.4    0.00      29    74.2  
 125   18:20   59.9    23    4.5   218      7.9   846.5    0.00      22    73.9  
 125   18:30   59.4    24    3.6   220      5.7   846.6    0.00      11    73.7  
 125   18:40   58.7    24    4.1   220      6.5   846.7    0.00       3    73.6  
 125   18:50   58.5    24    4.4   215      5.8   846.8    0.00       1    73.4  
 125   19:00   58.2    24    3.1   218      5.7   846.9    0.00       0    73.3  
 125   19:10   57.5    25    2.9   219      5.1   847.1    0.00       0    73.1  
 125   19:20   57.2    25    3.9   224      8.7   847.2    0.00       0    72.9  
 125   19:30   57.2    25    3.3   240      5.1   847.4    0.00       0    72.7  
 125   19:40   56.5    26    2.7   255      4.3   847.6    0.00       0    72.5  
 125   19:50   55.2    27    3.5   282      5.8   847.8    0.00       0    72.4  
 125   20:00   54.8    28    2.7   276      4.8   848.0    0.00       0    72.2  
 125   20:10   55.1    29    2.9   300      4.3   848.2    0.00       0    72.0  
 125   20:20   55.1    30    3.4   278      4.9   848.4    0.00       0    71.8  
 125   20:30   55.3    30    3.0   256      6.2   848.5    0.00       0    71.7  
 125   20:40   56.0    30    3.4   283      9.2   848.6    0.00       0    71.5  
 125   20:50   55.6    31    3.3   277      7.4   848.7    0.00       0    71.4  
 125   21:00   56.2    30    3.0   277      5.4   848.7    0.00       0    71.2  
 125   21:10   56.0    31    3.3   288      6.0   848.8    0.00       0    71.0  
 125   21:20   55.6    32    3.9   282      7.8   848.8    0.00       0    70.7  
 125   21:30   56.1    31    3.6   271      7.9   848.8    0.00       0    70.6  
 125   21:40   56.4    31    4.3   266      8.2   848.9    0.00       0    70.4  
 125   21:50   56.3    31    4.6   267      9.2   849.0    0.00       0    70.2  
 125   22:00   56.2    31    5.1   269      9.3   849.0    0.00       0    70.0  
 125   22:10   56.6    30    6.3   253     12.1   849.0    0.00       0    69.8  

Return to Garden Spring, Nevada graphs page.


Western Regional Climate Center,wrcc@dri.edu